Time;durP1;ratioP1;P1;durP2;ratioP2;P2;SDS_P1;SDS_P2;PMS_P1;PMS_P2;Temp;Humidity;BMP_temperature;BMP_pressure;BME280_temperature;BME280_humidity;BME280_pressure;Samples;Min_cycle;Max_cycle;Signal;HPM_P1;HPM_P2
2024/03/25 00:01:20;;;;;;;4.60;1.50;;;;;;;5.32;100.00;99952.97;6124702;23;20454;-71
2024/03/25 00:03:46;;;;;;;4.60;1.38;;;;;;;5.32;100.00;99951.13;6148255;23;20027;-71
2024/03/25 00:06:12;;;;;;;4.32;1.27;;;;;;;5.31;100.00;99954.03;6175782;23;20335;-71
2024/03/25 00:08:37;;;;;;;7.70;1.65;;;;;;;5.28;100.00;99949.22;6148513;23;20048;-71
2024/03/25 00:11:03;;;;;;;5.05;1.48;;;;;;;5.27;100.00;99959.03;6148893;23;20017;-71
2024/03/25 00:13:28;;;;;;;5.03;1.70;;;;;;;5.26;100.00;99951.34;6174081;23;20013;-71
2024/03/25 00:15:54;;;;;;;6.88;1.73;;;;;;;5.27;100.00;99955.59;6175041;23;20016;-71
2024/03/25 00:18:19;;;;;;;8.00;2.13;;;;;;;5.29;100.00;99966.78;6173809;23;20016;-71
2024/03/25 00:20:45;;;;;;;4.72;1.30;;;;;;;5.29;100.00;99961.47;6125360;23;20035;-71
2024/03/25 00:23:11;;;;;;;6.65;1.48;;;;;;;5.26;100.00;99968.06;6147603;23;20009;-71
2024/03/25 00:25:37;;;;;;;3.85;1.48;;;;;;;5.26;100.00;99968.06;6175672;23;20009;-71
2024/03/25 00:28:04;;;;;;;6.35;1.23;;;;;;;5.26;100.00;99968.06;6123870;23;20493;-71
2024/03/25 00:30:30;;;;;;;6.57;1.55;;;;;;;5.26;100.00;99975.22;6149214;23;20023;-71
2024/03/25 00:32:55;;;;;;;3.70;1.40;;;;;;;5.23;100.00;99973.09;6098804;23;20100;-71
2024/03/25 00:35:21;;;;;;;5.47;1.50;;;;;;;5.25;100.00;99984.25;6123626;23;20075;-71
2024/03/25 00:37:47;;;;;;;5.82;1.40;;;;;;;5.23;100.00;99986.38;6123629;23;20016;-70
2024/03/25 00:40:14;;;;;;;4.65;1.35;;;;;;;5.25;100.00;99986.91;6148641;23;20522;-73
2024/03/25 00:42:40;;;;;;;6.07;1.20;;;;;;;5.25;100.00;99979.75;6122705;23;20040;-70
2024/03/25 00:45:07;;;;;;;3.35;1.42;;;;;;;5.23;100.00;99981.84;6171945;23;20019;-70
2024/03/25 00:47:32;;;;;;;5.20;1.95;;;;;;;5.26;100.00;99993.81;6145219;23;20013;-70
2024/03/25 00:49:58;;;;;;;7.53;1.80;;;;;;;5.26;100.00;99994.59;6120645;23;20394;-70
2024/03/25 00:52:24;;;;;;;4.93;1.70;;;;;;;5.28;100.00;100002.31;6171653;23;20024;-71
2024/03/25 00:54:50;;;;;;;4.32;1.13;;;;;;;5.27;100.00;100001.50;6146325;23;20013;-72
2024/03/25 00:57:16;;;;;;;3.25;1.38;;;;;;;5.22;100.00;100006.00;6146216;23;20021;-70
2024/03/25 00:59:41;;;;;;;3.55;1.27;;;;;;;5.19;100.00;100010.75;6145378;23;20017;-71
2024/03/25 01:02:08;;;;;;;2.38;1.20;;;;;;;5.15;100.00;100007.00;6146072;23;20071;-70
2024/03/25 01:04:34;;;;;;;8.80;1.58;;;;;;;5.15;100.00;100014.97;6120880;23;20013;-70
2024/03/25 01:06:59;;;;;;;6.25;1.60;;;;;;;5.10;100.00;100012.25;6146405;23;20016;-70
2024/03/25 01:09:25;;;;;;;5.60;1.83;;;;;;;5.10;100.00;100017.56;6172508;23;20390;-72
2024/03/25 01:11:54;;;;;;;5.45;1.38;;;;;;;5.07;100.00;100018.06;6145667;23;20067;-70
2024/03/25 01:14:20;;;;;;;7.18;1.30;;;;;;;5.06;100.00;100023.63;6171839;23;20038;-70
2024/03/25 01:16:45;;;;;;;6.10;1.42;;;;;;;5.05;100.00;100008.75;6172645;23;20132;-70
2024/03/25 01:19:11;;;;;;;11.93;1.67;;;;;;;5.05;100.00;100016.72;6120958;23;20044;-70
2024/03/25 01:21:36;;;;;;;6.32;1.73;;;;;;;5.07;100.00;100025.22;6172489;23;20013;-70
2024/03/25 01:24:02;;;;;;;7.57;1.65;;;;;;;5.07;100.00;100018.06;6144985;23;20024;-70
2024/03/25 01:26:28;;;;;;;8.23;2.17;;;;;;;5.07;100.00;100028.66;6120804;23;20105;-70
2024/03/25 01:28:54;;;;;;;6.03;1.90;;;;;;;5.09;100.00;100031.91;6096865;23;20482;-70
2024/03/25 01:31:20;;;;;;;5.25;2.28;;;;;;;5.10;100.00;100028.19;6121624;23;20040;-71
2024/03/25 01:33:46;;;;;;;4.32;1.60;;;;;;;5.10;100.00;100025.53;6145641;23;20390;-70
2024/03/25 01:36:17;;;;;;;7.43;1.70;;;;;;;5.11;100.00;100024.47;6146212;23;20013;-69
2024/03/25 01:38:44;;;;;;;4.85;1.90;;;;;;;5.12;100.00;100026.06;6120277;23;20017;-70
2024/03/25 01:41:11;;;;;;;4.40;1.90;;;;;;;5.12;100.00;100039.34;6146008;23;20443;-69
2024/03/25 01:43:37;;;;;;;5.10;2.03;;;;;;;5.15;100.00;100038.84;6171021;23;20068;-70
2024/03/25 01:46:04;;;;;;;9.32;2.13;;;;;;;5.15;100.00;100038.06;6121180;23;20017;-70
2024/03/25 01:48:29;;;;;;;7.30;2.20;;;;;;;5.13;100.00;100045.44;6144815;23;20360;-72
2024/03/25 01:50:58;;;;;;;5.93;1.90;;;;;;;5.17;100.00;100046.56;6173403;23;20305;-70
2024/03/25 01:53:26;;;;;;;5.55;1.70;;;;;;;5.15;100.00;100038.06;6145620;23;20509;-69
2024/03/25 01:55:56;;;;;;;5.55;1.95;;;;;;;5.15;100.00;100051.34;6173595;23;20094;-70
2024/03/25 01:58:23;;;;;;;8.65;2.40;;;;;;;5.16;100.00;100043.09;6124038;23;20115;-70
2024/03/25 02:00:50;;;;;;;8.27;2.38;;;;;;;5.18;100.00;100037.53;6175446;23;20625;-70
2024/03/25 02:03:16;;;;;;;9.23;2.45;;;;;;;5.18;100.00;100045.50;6123020;23;20181;-69
2024/03/25 02:05:42;;;;;;;8.02;2.85;;;;;;;5.18;100.00;100062.22;6147030;23;20020;-70
2024/03/25 02:08:09;;;;;;;7.07;2.90;;;;;;;5.17;100.00;100060.63;6146615;23;20016;-69
2024/03/25 02:10:36;;;;;;;;;;;;;;;5.20;100.00;100056.66;6147871;23;20013;-71
2024/03/25 02:13:02;;;;;;;7.78;2.22;;;;;;;5.19;100.00;100071.00;6123104;23;20255;-70
2024/03/25 02:15:29;;;;;;;8.88;2.60;;;;;;;5.21;100.00;100060.91;6171344;23;20481;-70
2024/03/25 02:17:54;;;;;;;6.28;2.60;;;;;;;5.20;100.00;100073.41;6123152;23;20071;-70
2024/03/25 02:20:20;;;;;;;8.02;3.30;;;;;;;5.24;100.00;100078.22;6122877;23;20009;-70
2024/03/25 02:22:46;;;;;;;7.20;2.90;;;;;;;5.25;100.00;100077.16;6173019;23;20013;-70
2024/03/25 02:25:15;;;;;;;5.85;2.63;;;;;;;5.25;100.00;100079.81;6122701;23;20017;-70
2024/03/25 02:27:41;;;;;;;10.25;2.95;;;;;;;5.25;100.00;100082.47;6121639;23;20076;-70
2024/03/25 02:30:09;;;;;;;7.85;3.05;;;;;;;5.25;100.00;100088.59;6174239;23;20013;-71
2024/03/25 02:32:35;;;;;;;8.93;3.60;;;;;;;5.24;100.00;100094.94;6121987;23;20079;-71
2024/03/25 02:35:03;;;;;;;8.15;3.15;;;;;;;5.22;100.00;100093.59;6147525;23;20016;-71
2024/03/25 02:37:29;;;;;;;9.10;3.53;;;;;;;5.19;100.00;100089.56;6122229;23;20549;-72
2024/03/25 02:39:58;;;;;;;8.80;3.80;;;;;;;5.19;100.00;100089.56;6123483;23;20091;-73
2024/03/25 02:42:28;;;;;;;7.53;3.33;;;;;;;5.20;100.00;100085.88;6174681;23;20070;-70
2024/03/25 02:44:55;;;;;;;14.20;4.15;;;;;;;5.15;100.00;100088.50;6148419;23;20096;-70
2024/03/25 02:47:21;;;;;;;10.52;4.05;;;;;;;5.16;100.00;100096.19;6121705;23;20013;-71
2024/03/25 02:49:47;;;;;;;9.38;2.90;;;;;;;5.13;100.00;100096.69;6172688;23;20016;-71
2024/03/25 02:52:12;;;;;;;8.90;2.97;;;;;;;5.10;100.00;100102.50;6146929;23;20013;-71
2024/03/25 02:54:38;;;;;;;7.47;3.20;;;;;;;5.14;100.00;100103.59;6147035;23;20021;-71
2024/03/25 02:57:04;;;;;;;9.40;2.80;;;;;;;5.11;100.00;100103.31;6148944;23;20352;-71
2024/03/25 02:59:30;;;;;;;8.10;3.00;;;;;;;5.10;100.00;100101.69;6123038;23;20017;-71
2024/03/25 03:01:55;;;;;;;6.55;2.67;;;;;;;5.11;100.00;100112.06;6123727;23;20705;-71
2024/03/25 03:04:21;;;;;;;9.27;2.63;;;;;;;5.09;100.00;100110.72;6150074;23;20023;-71
2024/03/25 03:06:46;;;;;;;10.20;2.53;;;;;;;5.07;100.00;100110.94;6174920;23;20115;-71
2024/03/25 03:09:12;;;;;;;10.68;2.78;;;;;;;5.10;100.00;100121.06;6172940;23;20092;-72
2024/03/25 03:11:38;;;;;;;6.53;2.58;;;;;;;5.06;100.00;100116.50;6175755;23;20013;-72
2024/03/25 03:14:04;;;;;;;8.60;3.17;;;;;;;5.06;100.00;100125.28;6124196;23;20374;-71
2024/03/25 03:16:29;;;;;;;6.80;2.42;;;;;;;5.04;100.00;100130.03;6148414;23;20868;-71
2024/03/25 03:18:55;;;;;;;10.95;2.85;;;;;;;5.05;100.00;100131.63;6173973;23;20009;-71
2024/03/25 03:21:21;;;;;;;10.32;2.55;;;;;;;5.06;100.00;100135.09;6125719;23;20051;-72
2024/03/25 03:23:46;;;;;;;8.57;2.35;;;;;;;5.04;100.00;100156.56;6147463;23;20490;-72
2024/03/25 03:26:13;;;;;;;6.05;2.00;;;;;;;5.02;100.00;100149.91;6125155;23;20455;-70
2024/03/25 03:28:42;;;;;;;6.47;1.98;;;;;;;5.01;100.00;100154.38;6122514;23;20017;-71
2024/03/25 03:31:08;;;;;;;7.20;2.08;;;;;;;5.00;100.00;100154.66;6148240;23;20021;-71
2024/03/25 03:33:33;;;;;;;9.23;1.83;;;;;;;5.02;100.00;100163.19;6147867;23;20023;-71
2024/03/25 03:35:59;;;;;;;8.18;1.73;;;;;;;5.00;100.00;100170.56;6148451;23;20071;-70
2024/03/25 03:38:25;;;;;;;5.13;1.75;;;;;;;4.98;100.00;100168.16;6147602;23;20098;-70
2024/03/25 03:40:58;;;;;;;7.00;1.60;;;;;;;4.98;100.00;100168.16;6174458;23;20091;-70
2024/03/25 03:43:23;;;;;;;5.15;1.85;;;;;;;4.98;100.00;100178.78;6098827;23;20367;-72
2024/03/25 03:45:49;;;;;;;6.57;1.90;;;;;;;4.97;100.00;100176.38;6174041;23;20024;-72
2024/03/25 03:48:14;;;;;;;6.70;2.63;;;;;;;4.99;100.00;100182.25;6147784;23;20020;-71
2024/03/25 03:50:41;;;;;;;9.52;2.58;;;;;;;4.97;100.00;100187.78;6124159;23;20067;-71
2024/03/25 03:53:08;;;;;;;5.72;2.45;;;;;;;4.93;100.00;100198.09;6174859;23;20020;-71
2024/03/25 03:55:33;;;;;;;9.00;2.35;;;;;;;4.92;100.00;100201.78;6123789;23;20021;-71
2024/03/25 03:57:59;;;;;;;5.97;1.83;;;;;;;4.93;100.00;100189.31;6148996;23;20067;-70
2024/03/25 04:00:24;;;;;;;7.20;1.95;;;;;;;4.91;100.00;100202.03;6148975;23;20017;-71
2024/03/25 04:02:50;;;;;;;7.05;1.77;;;;;;;4.91;100.00;100191.44;6120911;23;20457;-71
2024/03/25 04:05:16;;;;;;;4.78;1.90;;;;;;;4.86;100.00;100197.47;6123676;23;20657;-71
2024/03/25 04:07:43;;;;;;;5.97;2.50;;;;;;;4.83;100.00;100202.47;6147327;23;20012;-71
2024/03/25 04:10:09;;;;;;;5.63;2.20;;;;;;;4.84;100.00;100220.00;6148933;23;20481;-70
2024/03/25 04:12:36;;;;;;;6.18;1.80;;;;;;;4.82;100.00;100222.09;6123562;23;20024;-71
2024/03/25 04:15:05;;;;;;;8.18;2.20;;;;;;;4.82;100.00;100222.09;6148389;23;20651;-71
2024/03/25 04:17:31;;;;;;;7.25;1.77;;;;;;;4.79;100.00;100217.25;6174176;23;20092;-71
2024/03/25 04:20:00;;;;;;;4.60;1.73;;;;;;;4.82;100.00;100227.41;6123060;23;20064;-71
2024/03/25 04:22:26;;;;;;;7.10;1.90;;;;;;;4.84;100.00;100220.78;6147771;23;20092;-71
2024/03/25 04:24:51;;;;;;;3.88;2.00;;;;;;;4.81;100.00;100237.22;6122121;23;20534;-70
2024/03/25 04:27:20;;;;;;;4.80;1.80;;;;;;;4.84;100.00;100235.91;6172544;23;20012;-69
2024/03/25 04:29:46;;;;;;;5.68;1.90;;;;;;;4.81;100.00;100244.34;6148063;23;20012;-71
2024/03/25 04:32:12;;;;;;;5.40;1.90;;;;;;;4.81;100.00;100249.66;6148065;23;20020;-70
2024/03/25 04:34:37;;;;;;;6.82;2.22;;;;;;;4.83;100.00;100248.38;6122413;23;20035;-71
2024/03/25 04:37:04;;;;;;;4.32;1.95;;;;;;;4.80;100.00;100258.66;6098635;23;20016;-71
2024/03/25 04:39:30;;;;;;;4.82;1.63;;;;;;;4.80;100.00;100259.44;6174495;23;20075;-71
2024/03/25 04:41:56;;;;;;;5.00;1.67;;;;;;;4.79;100.00;100259.69;6122349;23;20031;-72
2024/03/25 04:44:23;;;;;;;4.00;1.67;;;;;;;4.78;100.00;100263.41;6148525;23;20012;-70
2024/03/25 04:46:48;;;;;;;2.97;1.73;;;;;;;4.73;100.00;100266.78;6147285;23;20613;-71
2024/03/25 04:49:14;;;;;;;5.20;1.73;;;;;;;4.73;100.00;100273.94;6147048;23;20023;-71
2024/03/25 04:51:41;;;;;;;3.70;1.90;;;;;;;4.74;100.00;100288.81;6148029;23;20343;-70
2024/03/25 04:54:06;;;;;;;4.93;2.00;;;;;;;4.73;100.00;100287.19;6173749;23;20017;-71
2024/03/25 04:56:32;;;;;;;5.72;1.70;;;;;;;4.74;100.00;100283.50;6174934;23;20009;-71
2024/03/25 04:59:01;;;;;;;4.50;1.92;;;;;;;4.73;100.00;100287.19;6146848;23;20028;-71
2024/03/25 05:01:27;;;;;;;6.07;1.70;;;;;;;4.72;100.00;100274.97;6175478;23;20013;-70
2024/03/25 05:03:53;;;;;;;6.55;2.28;;;;;;;4.68;100.00;100279.19;6146479;23;20140;-70
2024/03/25 05:06:19;;;;;;;4.05;1.60;;;;;;;4.69;100.00;100291.41;6147908;23;20624;-71
2024/03/25 05:08:46;;;;;;;11.65;2.15;;;;;;;4.70;100.00;100303.63;6171982;23;20020;-71
2024/03/25 05:11:14;;;;;;;5.45;1.52;;;;;;;4.70;100.00;100303.63;6098589;23;20761;-71
2024/03/25 05:13:40;;;;;;;5.38;2.17;;;;;;;4.70;100.00;100299.09;6146836;23;20100;-71
2024/03/25 05:16:06;;;;;;;6.03;1.67;;;;;;;4.71;100.00;100300.72;6123512;23;20024;-71
2024/03/25 05:18:32;;;;;;;4.40;1.48;;;;;;;4.72;100.00;100302.31;6122874;23;20044;-71
2024/03/25 05:20:58;;;;;;;4.45;1.70;;;;;;;4.73;100.00;100303.13;6148423;23;20017;-70
2024/03/25 05:23:24;;;;;;;6.03;2.17;;;;;;;4.73;100.00;100311.06;6147265;23;20016;-71
2024/03/25 05:25:49;;;;;;;3.70;1.60;;;;;;;4.71;100.00;100305.22;6122957;23;20067;-70
2024/03/25 05:28:15;;;;;;;5.13;1.70;;;;;;;4.69;100.00;100297.50;6122755;23;20070;-70
2024/03/25 05:30:41;;;;;;;6.28;1.98;;;;;;;4.66;100.00;100304.06;6175174;23;20013;-70
2024/03/25 05:33:07;;;;;;;4.30;1.70;;;;;;;4.66;100.00;100309.38;6176482;23;20013;-70
2024/03/25 05:35:36;;;;;;;4.22;1.80;;;;;;;4.64;100.00;100310.69;6176165;23;20024;-69
2024/03/25 05:38:03;;;;;;;3.88;1.48;;;;;;;4.61;100.00;100306.66;6149136;23;20009;-71
2024/03/25 05:40:29;;;;;;;6.40;1.77;;;;;;;4.56;100.00;100303.94;6150604;23;20021;-71
2024/03/25 05:42:55;;;;;;;4.13;1.80;;;;;;;4.52;100.00;100317.91;6176218;23;20015;-73
2024/03/25 05:45:20;;;;;;;2.88;1.60;;;;;;;4.47;100.00;100321.28;6124921;23;20079;-70
2024/03/25 05:47:46;;;;;;;4.97;2.30;;;;;;;4.44;100.00;100327.06;6148987;23;20013;-72
2024/03/25 05:50:12;;;;;;;5.57;2.17;;;;;;;4.41;100.00;100330.19;6125132;23;20039;-71
2024/03/25 05:52:37;;;;;;;4.32;1.75;;;;;;;4.37;100.00;100321.09;6175696;23;20024;-71
2024/03/25 05:55:03;;;;;;;4.63;1.85;;;;;;;4.38;100.00;100330.66;6174536;23;20013;-72
2024/03/25 05:57:29;;;;;;;4.03;1.40;;;;;;;4.38;100.00;100339.41;6149508;23;20017;-72
2024/03/25 05:59:54;;;;;;;5.88;2.30;;;;;;;4.38;100.00;100333.31;6099856;23;20100;-71
2024/03/25 06:02:20;;;;;;;3.70;1.55;;;;;;;4.38;100.00;100325.34;6150305;23;20021;-71
2024/03/25 06:04:46;;;;;;;5.97;2.10;;;;;;;4.41;100.00;100332.84;6174090;23;20016;-71
2024/03/25 06:07:12;;;;;;;3.75;1.80;;;;;;;4.45;100.00;100336.59;6149299;23;20016;-70
2024/03/25 06:09:38;;;;;;;4.88;1.40;;;;;;;4.52;100.00;100331.97;6176520;23;20017;-71
2024/03/25 06:12:04;;;;;;;3.28;1.52;;;;;;;4.57;100.00;100341.84;6149404;23;20024;-70
2024/03/25 06:14:34;;;;;;;4.32;2.53;;;;;;;4.61;100.00;100343.81;6126068;23;20071;-75
2024/03/25 06:17:00;;;;;;;5.55;1.83;;;;;;;4.71;100.00;100352.97;6058501;23;20515;-74
2024/03/25 06:19:26;;;;;;;6.13;1.67;;;;;;;4.75;100.00;100348.78;6061709;23;20432;-75
2024/03/25 06:21:52;;;;;;;4.55;1.90;;;;;;;4.80;100.00;100343.56;6061004;23;20018;-74
2024/03/25 06:24:19;;;;;;;5.25;1.88;;;;;;;4.82;100.00;100346.78;6085526;23;20020;-74
2024/03/25 06:26:45;;;;;;;4.55;1.90;;;;;;;4.86;100.00;100351.34;6037996;23;20006;-75
2024/03/25 06:29:10;;;;;;;5.65;1.70;;;;;;;4.86;100.00;100355.84;6085461;23;20077;-75
2024/03/25 06:34:21;;;;;;;4.68;2.00;;;;;;;4.86;100.00;100366.47;6088299;23;20441;-75
2024/03/25 06:36:48;;;;;;;3.45;1.80;;;;;;;4.86;100.00;100371.78;6037233;23;20101;-75
2024/03/25 06:39:15;;;;;;;6.00;1.73;;;;;;;4.89;100.00;100371.31;6038256;23;20597;-75
2024/03/25 06:41:41;;;;;;;4.07;1.92;;;;;;;4.91;100.00;100379.81;6013577;23;20021;-75
2024/03/25 06:44:07;;;;;;;5.90;1.70;;;;;;;4.93;100.00;100383.03;6013092;23;20018;-72
2024/03/25 06:46:34;;;;;;;4.00;1.60;;;;;;;4.97;100.00;100380.72;6039839;23;20015;-74
2024/03/25 06:49:02;;;;;;;5.22;1.60;;;;;;;4.98;100.00;100385.78;6087361;23;20049;-75
2024/03/25 06:51:29;;;;;;;3.40;1.15;;;;;;;5.00;100.00;100380.22;6087852;23;20026;-75
2024/03/25 06:53:55;;;;;;;4.00;1.83;;;;;;;5.04;100.00;100387.47;6060809;23;20375;-75
2024/03/25 06:56:27;;;;;;;6.68;1.77;;;;;;;5.07;100.00;100392.28;6062050;23;20041;-75
2024/03/25 06:58:55;;;;;;;5.82;1.90;;;;;;;5.12;100.00;100394.22;6060168;23;20018;-75
2024/03/25 07:01:21;;;;;;;5.18;2.00;;;;;;;5.12;100.00;100402.19;6035970;23;20021;-75
2024/03/25 07:03:47;;;;;;;3.30;1.88;;;;;;;5.16;100.00;100406.78;6060358;23;20357;-74
2024/03/25 07:06:15;;;;;;;7.93;2.63;;;;;;;5.16;100.00;100404.13;6087308;23;20038;-74
2024/03/25 07:08:41;;;;;;;5.78;2.13;;;;;;;5.15;100.00;100401.72;6086262;23;20021;-74
2024/03/25 07:11:07;;;;;;;6.00;2.10;;;;;;;5.20;100.00;100399.94;6060860;23;20026;-73
2024/03/25 07:13:33;;;;;;;6.05;2.58;;;;;;;5.25;100.00;100411.69;6061133;23;20102;-75
2024/03/25 07:16:02;;;;;;;5.75;2.42;;;;;;;5.22;100.00;100412.97;6067155;23;20020;-75
2024/03/25 07:18:28;;;;;;;7.57;2.50;;;;;;;5.29;100.00;100418.13;6032372;23;20014;-74
2024/03/25 07:20:55;;;;;;;5.18;2.30;;;;;;;5.30;100.00;100419.72;6058424;23;20513;-73
2024/03/25 07:23:23;;;;;;;8.05;2.38;;;;;;;5.38;100.00;100414.00;6030933;23;20053;-73
2024/03/25 07:25:48;;;;;;;8.23;1.98;;;;;;;5.47;100.00;100421.31;6031914;23;20022;-75
2024/03/25 07:28:14;;;;;;;5.15;2.17;;;;;;;5.52;100.00;100425.09;6032225;23;20090;-75
2024/03/25 07:30:40;;;;;;;6.85;1.80;;;;;;;5.48;100.00;100425.56;6009064;23;20444;-75
2024/03/25 07:33:05;;;;;;;4.50;1.88;;;;;;;5.55;100.00;100428.06;6008391;23;20018;-75
2024/03/25 07:35:35;;;;;;;6.05;1.60;;;;;;;5.49;100.00;100431.72;6056240;23;20019;-76
2024/03/25 07:38:03;;;;;;;6.50;1.80;;;;;;;5.52;100.00;100428.56;6008157;23;20023;-74
2024/03/25 07:40:29;;;;;;;5.07;1.45;;;;;;;5.54;100.00;100437.06;6033891;23;20017;-74
2024/03/25 07:42:56;;;;;;;4.63;1.90;;;;;;;5.56;100.00;100435.00;6032999;23;20571;-74
2024/03/25 07:45:22;;;;;;;4.72;1.63;;;;;;;5.49;100.00;100434.38;5986182;23;20018;-74
2024/03/25 07:47:49;;;;;;;8.32;1.77;;;;;;;5.51;100.00;100442.09;6055514;23;20018;-74
2024/03/25 07:50:15;;;;;;;6.75;1.80;;;;;;;5.53;100.00;100450.59;6008298;23;20457;-74
2024/03/25 07:52:40;;;;;;;6.28;1.60;;;;;;;5.60;100.00;100446.72;6031995;23;20026;-73
2024/03/25 07:55:07;;;;;;;8.57;1.80;;;;;;;5.67;100.00;100452.69;6006621;23;20849;-74
2024/03/25 07:57:33;;;;;;;4.50;1.88;;;;;;;5.68;100.00;100448.97;6032436;23;20045;-74
2024/03/25 07:59:59;;;;;;;7.20;2.35;;;;;;;5.66;100.00;100456.38;6055191;23;20044;-74
2024/03/25 08:02:25;;;;;;;6.20;2.10;;;;;;;5.62;100.00;100452.63;6007936;23;20019;-74
2024/03/25 08:04:51;;;;;;;8.18;2.55;;;;;;;5.61;100.00;100453.66;6032099;23;20026;-74
2024/03/25 08:07:17;;;;;;;;;;;;;;;5.64;100.00;100458.50;6009083;23;20681;-74
2024/03/25 08:09:43;;;;;;;4.82;2.33;;;;;;;5.65;100.00;100459.28;6008753;23;19921;-73
2024/03/25 08:12:09;;;;;;;5.15;3.25;;;;;;;5.64;100.00;100466.47;6008428;23;20014;-75
2024/03/25 08:14:35;;;;;;;6.68;2.65;;;;;;;5.65;100.00;100462.75;6009103;23;20097;-74
2024/03/25 08:17:03;;;;;;;7.85;2.78;;;;;;;5.64;100.00;100465.66;6032242;23;20053;-75
2024/03/25 08:19:29;;;;;;;11.73;2.72;;;;;;;5.69;100.00;100463.06;6057690;23;20070;-75
2024/03/25 08:21:54;;;;;;;6.53;2.67;;;;;;;5.73;100.00;100466.84;6032075;23;20018;-78
2024/03/25 08:24:20;;;;;;;9.85;2.97;;;;;;;5.74;100.00;100463.94;6009308;23;20018;-74
2024/03/25 08:26:47;;;;;;;6.43;2.92;;;;;;;5.79;100.00;100473.03;6057408;23;20015;-77
2024/03/25 08:29:12;;;;;;;8.25;3.03;;;;;;;5.84;100.00;100467.81;6007797;23;20014;-78
2024/03/25 08:31:38;;;;;;;6.47;2.72;;;;;;;5.93;100.00;100471.69;6031743;23;20094;-77
2024/03/25 08:34:04;;;;;;;7.63;2.92;;;;;;;5.94;100.00;100473.28;6030871;23;20031;-73
2024/03/25 08:36:30;;;;;;;6.32;2.58;;;;;;;6.05;100.00;100475.03;6032978;23;20465;-75
2024/03/25 08:38:55;;;;;;;9.05;2.55;;;;;;;6.06;100.00;100471.31;6056236;23;20014;-74
2024/03/25 08:41:21;;;;;;;8.00;2.30;;;;;;;6.18;100.00;100477.34;6032672;23;20018;-75
2024/03/25 08:43:47;;;;;;;9.80;2.38;;;;;;;6.26;100.00;100481.41;6031834;23;20099;-74
2024/03/25 08:46:13;;;;;;;8.07;2.38;;;;;;;6.39;100.00;100472.25;6031657;23;20262;-74
2024/03/25 08:48:39;;;;;;;11.13;2.17;;;;;;;6.40;100.00;100471.22;6008512;23;20018;-75
2024/03/25 08:51:04;;;;;;;11.00;2.58;;;;;;;6.49;100.00;100467.03;6032098;23;20019;-74
2024/03/25 08:53:30;;;;;;;9.05;2.30;;;;;;;6.51;100.00;100472.94;6008889;23;20019;-75
2024/03/25 08:55:56;;;;;;;8.50;2.53;;;;;;;6.51;100.00;100478.25;6008465;23;20453;-74
2024/03/25 08:58:21;;;;;;;9.65;2.30;;;;;;;6.50;100.00;100476.63;6032576;23;20022;-73
2024/03/25 09:00:47;;;;;;;8.75;1.90;;;;;;;6.51;100.00;100472.94;6057213;23;20128;-73
2024/03/25 09:03:13;;;;;;;8.20;2.35;;;;;;;6.58;100.00;100478.88;6008052;23;20023;-75
2024/03/25 09:05:39;;;;;;;8.88;2.45;;;;;;;6.65;100.00;100471.50;6032321;23;20057;-75
2024/03/25 09:08:13;;;;;;;9.38;3.10;;;;;;;6.70;100.00;100473.38;6007176;23;20342;-75
2024/03/25 09:13:23;;;;;;;8.30;1.80;;;;;;;6.81;100.00;100483.91;6055305;23;20062;-76
2024/03/25 09:15:50;;;;;;;7.97;1.77;;;;;;;6.83;100.00;100475.66;6042754;23;20026;-74
2024/03/25 09:18:19;;;;;;;7.32;2.10;;;;;;;6.83;100.00;100479.13;6054797;23;20094;-76
2024/03/25 09:20:47;;;;;;;5.95;1.70;;;;;;;6.91;100.00;100477.06;6032767;23;20019;-74
2024/03/25 09:23:13;;;;;;;5.75;1.55;;;;;;;6.98;100.00;100478.50;6030695;23;20021;-74
2024/03/25 09:25:39;;;;;;;8.70;2.03;;;;;;;7.03;100.00;100491.84;6056278;23;20389;-74
2024/03/25 09:28:07;;;;;;;6.60;2.10;;;;;;;7.23;100.00;100480.56;6055828;23;20026;-74
2024/03/25 09:30:33;;;;;;;4.72;1.60;;;;;;;7.40;100.00;100488.44;6058484;23;20018;-74
2024/03/25 09:32:59;;;;;;;6.75;1.80;;;;;;;7.30;100.00;100483.81;6032157;23;20042;-74
2024/03/25 09:35:26;;;;;;;7.93;1.80;;;;;;;7.24;100.00;100486.69;6055992;23;20402;-74
2024/03/25 09:37:52;;;;;;;5.35;1.45;;;;;;;7.27;100.00;100488.88;6056508;23;20680;-74
2024/03/25 09:40:17;;;;;;;5.22;1.60;;;;;;;7.30;100.00;100491.81;6057503;23;20015;-73
2024/03/25 09:42:48;;;;;;;8.93;1.80;;;;;;;7.26;100.00;100489.94;6057985;23;20011;-73
2024/03/25 09:45:22;;;;;;;8.82;1.60;;;;;;;7.22;100.00;100489.59;6055064;23;20509;-74
2024/03/25 09:47:48;;;;;;;8.20;1.55;;;;;;;7.27;100.00;100484.34;6056368;23;20037;-75
2024/03/25 09:50:19;;;;;;;9.15;1.40;;;;;;;7.31;100.00;100484.63;6055552;23;20650;-74
2024/03/25 09:52:46;;;;;;;11.18;1.92;;;;;;;7.32;100.00;100489.72;6032414;23;20098;-73
2024/03/25 09:55:12;;;;;;;8.80;1.88;;;;;;;7.25;100.00;100480.31;6055728;23;20014;-74
2024/03/25 09:57:40;;;;;;;7.22;1.30;;;;;;;7.28;100.00;100477.94;6032809;23;20113;-72
2024/03/25 10:00:08;;;;;;;9.40;1.88;;;;;;;7.42;100.00;100483.66;6030334;23;20030;-74
2024/03/25 10:02:41;;;;;;;8.68;1.88;;;;;;;7.58;100.00;100479.22;6079060;23;20015;-73
2024/03/25 10:05:08;;;;;;;6.82;2.13;;;;;;;7.80;100.00;100485.25;6056086;23;20354;-74
2024/03/25 10:07:34;;;;;;;7.50;1.55;;;;;;;7.87;100.00;100479.72;6079852;23;20483;-73
2024/03/25 10:10:06;;;;;;;5.13;1.67;;;;;;;7.93;100.00;100481.34;6030616;23;20034;-73
2024/03/25 10:12:32;;;;;;;6.35;1.30;;;;;;;7.97;100.00;100489.63;6055771;23;20022;-74
2024/03/25 10:14:58;;;;;;;5.45;1.50;;;;;;;7.92;100.00;100488.53;6054619;23;20085;-74
2024/03/25 10:17:24;;;;;;;;;;;;;;;7.75;100.00;100482.56;6055940;23;20106;-74
2024/03/25 10:19:49;;;;;;;5.18;1.40;;;;;;;7.64;100.00;100496.88;6057297;23;19973;-74
2024/03/25 10:22:15;;;;;;;9.07;1.95;;;;;;;7.56;100.00;100500.00;6056290;23;20029;-74
2024/03/25 10:24:45;;;;;;;7.13;1.70;;;;;;;7.52;100.00;100501.56;6056641;23;20078;-74
2024/03/25 10:27:23;;;;;;;6.22;2.05;;;;;;;7.53;100.00;100495.19;6030050;23;20576;-74
2024/03/25 10:29:53;;;;;;;4.60;1.38;;;;;;;7.53;100.00;100505.88;6057182;23;20010;-74
2024/03/25 10:32:19;;;;;;;7.00;1.80;;;;;;;7.55;100.00;100493.06;6056080;23;20022;-74
2024/03/25 10:34:45;;;;;;;6.70;1.80;;;;;;;7.63;100.00;100495.25;6057564;23;20014;-75
2024/03/25 10:37:11;;;;;;;9.52;2.75;;;;;;;7.77;100.00;100501.75;6078671;23;20073;-74
2024/03/25 10:39:48;;;;;;;5.57;1.70;;;;;;;7.81;100.00;100502.88;6032585;23;20018;-74
2024/03/25 10:42:18;;;;;;;6.38;1.85;;;;;;;7.80;100.00;100506.59;6055864;23;20018;-73
2024/03/25 10:44:44;;;;;;;9.18;1.70;;;;;;;7.89;100.00;100490.91;6081194;23;20015;-73
2024/03/25 10:47:17;;;;;;;8.80;2.67;;;;;;;7.92;100.00;100504.53;6081079;23;20019;-73
2024/03/25 10:50:09;;;;;;;10.65;2.35;;;;;;;7.99;100.00;100503.50;6057088;23;20019;-74
2024/03/25 10:52:37;;;;;;;7.35;1.52;;;;;;;8.13;100.00;100504.66;6035230;23;20006;-74
2024/03/25 10:55:04;;;;;;;8.65;2.08;;;;;;;8.14;100.00;100507.06;6033825;23;20050;-73
2024/03/25 10:57:31;;;;;;;5.18;1.80;;;;;;;8.10;100.00;100511.28;6058472;23;20015;-73
2024/03/25 10:59:57;;;;;;;7.35;1.60;;;;;;;8.06;100.00;100502.22;6056432;23;20352;-74
2024/03/25 11:02:24;;;;;;;8.10;1.50;;;;;;;8.12;100.00;100513.69;6080922;23;20504;-73
2024/03/25 11:04:51;;;;;;;13.95;1.67;;;;;;;8.17;100.00;100516.41;6033201;23;20026;-75
2024/03/25 11:07:17;;;;;;;5.05;1.70;;;;;;;8.16;100.00;100510.25;6056766;23;20014;-74
2024/03/25 11:09:43;;;;;;;6.22;1.33;;;;;;;8.36;100.00;100508.78;6058771;23;20105;-74
2024/03/25 11:12:12;;;;;;;8.00;2.00;;;;;;;8.41;100.00;100506.94;6056311;23;20806;-74
2024/03/25 11:14:41;;;;;;;5.78;1.60;;;;;;;8.53;100.00;100508.56;6033025;23;20157;-74
2024/03/25 11:17:17;;;;;;;4.50;1.65;;;;;;;8.61;100.00;100502.75;6032087;23;20026;-74
2024/03/25 11:19:42;;;;;;;3.42;1.10;;;;;;;8.47;100.00;100503.25;6033279;23;20025;-75
2024/03/25 11:22:11;;;;;;;10.25;2.15;;;;;;;8.51;100.00;100502.72;6008510;23;20027;-74
2024/03/25 11:24:38;;;;;;;9.85;1.83;;;;;;;8.53;100.00;100503.25;6033098;23;20117;-74
2024/03/25 11:27:07;;;;;;;6.07;1.38;;;;;;;8.68;100.00;100500.66;6031048;23;20146;-74
2024/03/25 11:29:34;;;;;;;6.25;1.40;;;;;;;8.86;100.00;100500.13;6009162;23;20037;-74